Time;durP1;ratioP1;P1;durP2;ratioP2;P2;SDS_P1;SDS_P2;PMS_P1;PMS_P2;Temp;Humidity;BMP_temperature;BMP_pressure;BME280_temperature;BME280_humidity;BME280_pressure;Samples;Min_cycle;Max_cycle;Signal;HPM_P1;HPM_P2
2022/08/10 00:00:25;;;;;;;5.25;3.25;;;;;;;;;;4996304;28;20050;-86
2022/08/10 00:02:59;;;;;;;3.65;2.97;;;;;;;;;;5004093;28;20423;-85
2022/08/10 00:05:53;;;;;;;3.08;2.80;;;;;;;;;;5005860;28;20054;-85
2022/08/10 00:08:23;;;;;;;3.45;2.78;;;;;;;;;;5005550;28;20074;-85
2022/08/10 00:10:52;;;;;;;4.63;3.05;;;;;;;;;;5006012;28;20082;-86
2022/08/10 00:13:39;;;;;;;3.33;2.92;;;;;;;;;;5004694;28;20051;-85
2022/08/10 00:16:10;;;;;;;5.20;3.05;;;;;;;;;;5006282;28;20050;-86
2022/08/10 00:18:53;;;;;;;4.57;3.33;;;;;;;;;;4987712;28;20105;-85
2022/08/10 00:21:38;;;;;;;3.58;3.15;;;;;;;;;;5001061;28;20054;-85
2022/08/10 00:24:07;;;;;;;3.85;2.97;;;;;;;;;;4999761;28;20065;-85
2022/08/10 00:26:42;;;;;;;6.50;3.30;;;;;;;;;;5001946;28;20046;-85
2022/08/10 00:29:30;;;;;;;3.67;3.38;;;;;;;;;;5006911;28;20046;-86
2022/08/10 00:31:57;;;;;;;3.50;3.20;;;;;;;;;;5007109;28;20051;-85
2022/08/10 00:34:31;;;;;;;6.90;3.50;;;;;;;;;;5006651;28;20052;-86
2022/08/10 00:40:19;;;;;;;3.58;3.30;;;;;;;;;;5008977;28;20057;-86
2022/08/10 00:43:06;;;;;;;3.60;3.30;;;;;;;;;;5007945;28;20055;-86
2022/08/10 00:46:03;;;;;;;3.88;3.63;;;;;;;;;;5011342;28;20057;-85
2022/08/10 00:49:07;;;;;;;6.88;3.50;;;;;;;;;;5011313;28;20050;-84
2022/08/10 00:51:56;;;;;;;4.10;3.67;;;;;;;;;;5007087;28;20034;-85
2022/08/10 00:54:52;;;;;;;6.18;3.72;;;;;;;;;;5007412;28;20050;-85
2022/08/10 00:57:59;;;;;;;4.20;3.83;;;;;;;;;;5026267;28;20049;-85
2022/08/10 01:00:28;;;;;;;4.65;3.60;;;;;;;;;;5009184;28;20070;-84
2022/08/10 01:09:58;;;;;;;3.65;3.30;;;;;;;;;;5005596;28;20501;-87
2022/08/10 01:12:44;;;;;;;4.97;3.92;;;;;;;;;;5002712;28;20073;-85
2022/08/10 01:15:28;;;;;;;7.03;4.55;;;;;;;;;;4992236;28;20113;-85
2022/08/10 01:18:10;;;;;;;4.50;4.10;;;;;;;;;;4991815;28;20047;-85
2022/08/10 01:21:08;;;;;;;5.97;4.47;;;;;;;;;;5008870;28;20046;-86
2022/08/10 01:27:32;;;;;;;6.10;3.78;;;;;;;;;;5008019;28;20056;-85
2022/08/10 01:30:12;;;;;;;4.65;4.20;;;;;;;;;;4990670;28;20100;-86
2022/08/10 01:33:00;;;;;;;5.22;4.30;;;;;;;;;;4990133;28;20520;-86
2022/08/10 01:35:34;;;;;;;;;;;;;;;;;;4992935;28;20073;-86
2022/08/10 01:38:12;;;;;;;3.90;3.70;;;;;;;;;;5003210;28;19929;-85
2022/08/10 01:45:07;;;;;;;4.72;4.32;;;;;;;;;;5007068;28;20057;-87
2022/08/10 01:51:16;;;;;;;4.30;4.00;;;;;;;;;;5007421;28;20046;-86
2022/08/10 01:54:24;;;;;;;4.68;4.28;;;;;;;;;;5005526;28;20467;-86
2022/08/10 02:00:29;;;;;;;5.80;4.47;;;;;;;;;;5007161;28;20042;-87
2022/08/10 02:03:22;;;;;;;4.75;4.35;;;;;;;;;;5006170;28;20049;-85
2022/08/10 02:05:53;;;;;;;5.15;4.72;;;;;;;;;;5009286;28;20073;-85
2022/08/10 02:08:23;;;;;;;11.95;4.80;;;;;;;;;;5005969;28;20054;-86
2022/08/10 02:10:52;;;;;;;5.22;4.70;;;;;;;;;;5005977;28;20050;-87
2022/08/10 02:13:20;;;;;;;6.95;4.50;;;;;;;;;;5007334;28;20046;-85
2022/08/10 02:15:50;;;;;;;6.13;4.28;;;;;;;;;;5003387;28;20050;-85
2022/08/10 02:18:30;;;;;;;6.55;4.35;;;;;;;;;;5005172;28;20077;-86
2022/08/10 02:21:06;;;;;;;4.97;4.53;;;;;;;;;;5006936;28;20389;-86
2022/08/10 02:23:35;;;;;;;5.50;4.88;;;;;;;;;;5008768;28;20050;-85
2022/08/10 02:26:04;;;;;;;5.20;4.70;;;;;;;;;;5006725;28;20054;-85
2022/08/10 02:28:33;;;;;;;6.75;4.85;;;;;;;;;;5000466;28;20053;-86
2022/08/10 02:31:06;;;;;;;7.35;4.88;;;;;;;;;;4993491;28;20050;-87
2022/08/10 02:33:38;;;;;;;6.40;4.78;;;;;;;;;;4993440;28;20042;-87
2022/08/10 02:36:24;;;;;;;6.35;4.90;;;;;;;;;;4993350;28;20053;-88
2022/08/10 02:38:53;;;;;;;5.35;4.88;;;;;;;;;;4993471;28;20062;-87
2022/08/10 02:41:32;;;;;;;5.10;4.70;;;;;;;;;;4993552;28;20132;-88
2022/08/10 02:44:27;;;;;;;4.97;4.50;;;;;;;;;;4993769;28;20137;-87
2022/08/10 02:47:21;;;;;;;5.45;4.97;;;;;;;;;;4993194;28;20046;-88
2022/08/10 02:49:53;;;;;;;5.90;5.22;;;;;;;;;;4992598;28;20078;-88
2022/08/10 02:52:29;;;;;;;5.70;5.20;;;;;;;;;;4993215;28;20054;-88
2022/08/10 02:55:02;;;;;;;5.68;5.18;;;;;;;;;;4993020;28;20088;-88
2022/08/10 02:57:48;;;;;;;8.57;5.00;;;;;;;;;;4993138;28;20050;-88
2022/08/10 03:00:37;;;;;;;5.90;4.57;;;;;;;;;;4993236;28;20048;-86
2022/08/10 03:03:05;;;;;;;5.63;5.10;;;;;;;;;;4993255;28;20073;-87
2022/08/10 03:05:33;;;;;;;6.75;5.78;;;;;;;;;;4993206;28;20046;-88
2022/08/10 03:08:01;;;;;;;6.35;5.10;;;;;;;;;;4992974;28;20460;-87
2022/08/10 03:10:30;;;;;;;6.68;5.25;;;;;;;;;;4993035;28;20073;-87
2022/08/10 03:12:59;;;;;;;6.43;5.63;;;;;;;;;;4992717;28;20055;-88
2022/08/10 03:15:28;;;;;;;10.60;5.78;;;;;;;;;;4993017;28;20077;-88
2022/08/10 03:17:56;;;;;;;5.47;5.00;;;;;;;;;;4992769;28;20057;-87
2022/08/10 03:20:25;;;;;;;5.53;5.03;;;;;;;;;;4993106;28;20455;-87
2022/08/10 03:23:06;;;;;;;7.28;5.07;;;;;;;;;;4993607;28;20137;-87
2022/08/10 03:25:34;;;;;;;5.80;5.30;;;;;;;;;;4992555;28;20086;-87
2022/08/10 03:28:01;;;;;;;5.55;5.13;;;;;;;;;;4993663;28;20078;-88
2022/08/10 03:30:30;;;;;;;6.00;5.45;;;;;;;;;;4993904;28;20074;-88
2022/08/10 03:33:00;;;;;;;6.22;5.72;;;;;;;;;;4992576;28;20057;-88
2022/08/10 03:35:27;;;;;;;9.25;5.85;;;;;;;;;;4992903;28;20515;-88
2022/08/10 03:37:54;;;;;;;6.63;5.97;;;;;;;;;;4992569;28;20261;-88
2022/08/10 03:40:30;;;;;;;6.28;5.78;;;;;;;;;;4993586;28;20054;-88
2022/08/10 03:43:13;;;;;;;7.15;5.70;;;;;;;;;;4994097;28;20056;-88
2022/08/10 03:45:40;;;;;;;6.40;5.90;;;;;;;;;;4994918;28;20069;-86
2022/08/10 03:48:22;;;;;;;8.38;6.80;;;;;;;;;;5007185;28;20114;-85
2022/08/10 03:51:12;;;;;;;6.53;6.03;;;;;;;;;;5009156;28;20054;-86
2022/08/10 03:53:41;;;;;;;8.18;7.22;;;;;;;;;;4990329;28;20121;-85
2022/08/10 03:56:32;;;;;;;10.65;8.45;;;;;;;;;;5001900;28;20516;-86
2022/08/10 03:59:00;;;;;;;10.60;9.48;;;;;;;;;;5004446;28;20047;-86
2022/08/10 04:01:29;;;;;;;10.13;9.07;;;;;;;;;;5008197;28;20046;-85
2022/08/10 04:04:17;;;;;;;9.32;8.15;;;;;;;;;;5009838;28;20077;-86
2022/08/10 04:07:06;;;;;;;7.15;6.45;;;;;;;;;;5009756;28;20070;-86
2022/08/10 04:09:35;;;;;;;6.60;6.00;;;;;;;;;;5008075;28;20085;-85
2022/08/10 04:12:21;;;;;;;6.47;5.95;;;;;;;;;;5006870;28;20050;-86
2022/08/10 04:14:49;;;;;;;7.35;5.97;;;;;;;;;;4999485;28;20122;-87
2022/08/10 04:17:23;;;;;;;6.18;5.68;;;;;;;;;;4995954;28;20514;-88
2022/08/10 04:20:32;;;;;;;8.02;6.13;;;;;;;;;;4996270;28;20050;-87
2022/08/10 04:23:02;;;;;;;6.60;6.03;;;;;;;;;;4996172;28;20050;-89
2022/08/10 04:25:30;;;;;;;8.65;6.80;;;;;;;;;;4995741;28;20141;-87
2022/08/10 04:27:57;;;;;;;8.77;7.53;;;;;;;;;;4995883;28;20116;-87
2022/08/10 04:30:25;;;;;;;8.80;7.68;;;;;;;;;;4995946;28;20050;-87
2022/08/10 04:32:54;;;;;;;8.43;7.63;;;;;;;;;;4995837;28;20054;-88
2022/08/10 04:35:23;;;;;;;25.73;13.27;;;;;;;;;;4995965;28;20101;-89
2022/08/10 04:37:51;;;;;;;83.30;11.25;;;;;;;;;;4998460;28;20077;-88
2022/08/10 04:40:18;;;;;;;15.32;9.90;;;;;;;;;;5004122;28;20081;-87
2022/08/10 04:43:01;;;;;;;9.20;8.40;;;;;;;;;;5001064;28;20046;-87
2022/08/10 04:45:33;;;;;;;7.10;6.40;;;;;;;;;;4995791;28;20092;-88
2022/08/10 04:48:18;;;;;;;7.50;6.70;;;;;;;;;;4995886;28;20280;-88
2022/08/10 04:51:05;;;;;;;11.82;6.43;;;;;;;;;;4996770;28;20058;-88
2022/08/10 04:53:33;;;;;;;10.90;9.90;;;;;;;;;;4995583;28;20507;-88
2022/08/10 04:56:20;;;;;;;9.73;8.38;;;;;;;;;;4995477;28;20054;-88
2022/08/10 04:58:58;;;;;;;11.68;10.63;;;;;;;;;;4995516;28;20062;-88
2022/08/10 05:01:25;;;;;;;8.55;7.75;;;;;;;;;;4995294;28;20047;-87
2022/08/10 05:03:52;;;;;;;13.82;8.20;;;;;;;;;;4996159;28;20570;-87
2022/08/10 05:06:39;;;;;;;15.57;6.40;;;;;;;;;;4995703;28;20045;-85
2022/08/10 05:09:13;;;;;;;10.65;6.00;;;;;;;;;;5007264;28;20055;-86
2022/08/10 05:11:42;;;;;;;9.75;5.40;;;;;;;;;;5003651;28;20042;-84
2022/08/10 05:14:10;;;;;;;5.18;4.68;;;;;;;;;;5000947;28;20056;-84
2022/08/10 05:16:37;;;;;;;5.88;4.53;;;;;;;;;;5000014;28;20105;-85
2022/08/10 05:19:05;;;;;;;5.28;4.70;;;;;;;;;;5004420;28;20046;-86
2022/08/10 05:21:33;;;;;;;5.82;4.82;;;;;;;;;;5002779;28;20046;-86
2022/08/10 05:24:25;;;;;;;6.32;5.28;;;;;;;;;;5002855;28;20073;-87
2022/08/10 05:26:53;;;;;;;10.30;4.82;;;;;;;;;;5006764;28;20416;-86
2022/08/10 05:29:36;;;;;;;7.32;3.88;;;;;;;;;;5003929;28;20054;-86
2022/08/10 05:32:04;;;;;;;4.68;4.10;;;;;;;;;;5005751;28;20133;-86
2022/08/10 05:34:47;;;;;;;5.50;3.80;;;;;;;;;;5007770;28;20050;-85
2022/08/10 05:37:19;;;;;;;8.57;4.18;;;;;;;;;;5001301;28;20550;-87
2022/08/10 05:40:07;;;;;;;4.65;4.00;;;;;;;;;;4998619;28;20073;-87
2022/08/10 05:42:34;;;;;;;5.07;3.53;;;;;;;;;;5000365;28;20085;-86
2022/08/10 05:45:02;;;;;;;6.03;3.70;;;;;;;;;;4996417;28;20054;-88
2022/08/10 05:47:29;;;;;;;5.88;3.92;;;;;;;;;;4994337;28;20459;-88
2022/08/10 05:50:18;;;;;;;4.65;3.20;;;;;;;;;;4994725;28;20050;-86
2022/08/10 05:52:45;;;;;;;7.38;4.25;;;;;;;;;;4994892;28;20046;-87
2022/08/10 05:55:12;;;;;;;7.85;4.28;;;;;;;;;;4994285;28;20105;-86
2022/08/10 05:57:43;;;;;;;10.30;5.97;;;;;;;;;;4995911;28;20059;-86
2022/08/10 06:00:13;;;;;;;9.27;4.97;;;;;;;;;;4995172;28;20050;-87
2022/08/10 06:03:03;;;;;;;7.78;4.68;;;;;;;;;;4994436;28;20431;-87
2022/08/10 06:05:31;;;;;;;11.75;5.63;;;;;;;;;;4994384;28;20051;-87
2022/08/10 06:08:04;;;;;;;9.02;5.22;;;;;;;;;;4994029;28;20097;-87
2022/08/10 06:10:33;;;;;;;6.47;3.80;;;;;;;;;;4994162;28;20081;-87
2022/08/10 06:15:58;;;;;;;5.57;3.90;;;;;;;;;;4995889;28;20133;-87
2022/08/10 06:18:26;;;;;;;3.92;3.63;;;;;;;;;;4995340;28;20070;-86
2022/08/10 06:20:54;;;;;;;6.68;3.83;;;;;;;;;;4993785;28;20109;-87
2022/08/10 06:23:22;;;;;;;16.65;4.70;;;;;;;;;;4993647;28;20074;-87
2022/08/10 06:25:49;;;;;;;18.10;6.03;;;;;;;;;;4993202;28;20121;-87
2022/08/10 06:28:40;;;;;;;24.13;6.32;;;;;;;;;;4993930;28;20208;-87
2022/08/10 06:31:07;;;;;;;14.82;5.60;;;;;;;;;;4993727;28;20054;-87
2022/08/10 06:33:38;;;;;;;16.15;6.40;;;;;;;;;;4994003;28;20125;-87
2022/08/10 06:36:05;;;;;;;15.07;5.38;;;;;;;;;;4993874;28;20050;-87
2022/08/10 06:38:33;;;;;;;18.30;5.78;;;;;;;;;;4994807;28;20054;-87
2022/08/10 06:41:04;;;;;;;22.65;5.68;;;;;;;;;;4993579;28;20052;-87
2022/08/10 06:43:33;;;;;;;17.92;5.60;;;;;;;;;;4993732;28;20050;-87
2022/08/10 06:46:01;;;;;;;20.95;6.07;;;;;;;;;;4993530;28;20047;-87
2022/08/10 06:48:37;;;;;;;17.10;4.85;;;;;;;;;;4993421;28;20101;-87
2022/08/10 06:51:06;;;;;;;10.32;4.47;;;;;;;;;;4993410;28;20054;-88
2022/08/10 06:53:35;;;;;;;21.02;4.18;;;;;;;;;;4993460;28;20046;-87
2022/08/10 06:56:21;;;;;;;17.80;4.90;;;;;;;;;;4993494;28;20458;-87
2022/08/10 06:59:26;;;;;;;19.58;5.13;;;;;;;;;;4993375;28;20065;-87
2022/08/10 07:01:59;;;;;;;17.70;4.50;;;;;;;;;;4993287;28;20046;-88
2022/08/10 07:04:40;;;;;;;34.90;4.88;;;;;;;;;;4994175;28;20042;-86
2022/08/10 07:07:07;;;;;;;20.33;4.28;;;;;;;;;;4993363;28;20073;-86
2022/08/10 07:09:36;;;;;;;20.58;4.57;;;;;;;;;;4994513;28;20522;-85
2022/08/10 07:12:06;;;;;;;12.88;3.83;;;;;;;;;;4993053;28;20050;-86
2022/08/10 07:14:42;;;;;;;15.65;4.63;;;;;;;;;;4994548;28;20050;-85
2022/08/10 07:17:14;;;;;;;25.77;4.72;;;;;;;;;;4994002;28;20050;-86
2022/08/10 07:19:44;;;;;;;15.30;4.70;;;;;;;;;;4993495;28;20415;-85
2022/08/10 07:22:27;;;;;;;12.43;4.32;;;;;;;;;;4993158;28;20233;-86
2022/08/10 07:25:20;;;;;;;11.27;3.40;;;;;;;;;;4992784;28;20140;-85
2022/08/10 07:27:48;;;;;;;11.50;3.53;;;;;;;;;;4992989;28;20054;-86
2022/08/10 07:30:32;;;;;;;6.72;3.00;;;;;;;;;;4992655;28;20105;-86
2022/08/10 07:33:00;;;;;;;11.68;3.47;;;;;;;;;;4993193;28;20046;-85
2022/08/10 07:35:28;;;;;;;9.15;2.88;;;;;;;;;;4993262;28;20082;-86
2022/08/10 07:38:05;;;;;;;6.50;2.88;;;;;;;;;;4994685;28;20050;-85
2022/08/10 07:40:33;;;;;;;4.45;2.40;;;;;;;;;;5005788;28;20042;-84
2022/08/10 07:43:13;;;;;;;7.07;2.80;;;;;;;;;;5007618;28;20153;-84
2022/08/10 07:45:41;;;;;;;6.03;2.70;;;;;;;;;;5010896;28;20065;-85
2022/08/10 07:48:14;;;;;;;5.75;2.50;;;;;;;;;;5005599;28;20455;-85
2022/08/10 07:50:43;;;;;;;9.77;2.70;;;;;;;;;;5006486;28;20126;-85
2022/08/10 07:53:12;;;;;;;6.10;2.40;;;;;;;;;;5006323;28;20142;-83
2022/08/10 07:55:41;;;;;;;7.75;2.35;;;;;;;;;;5002690;28;20047;-83
2022/08/10 07:58:44;;;;;;;3.15;2.30;;;;;;;;;;5003560;28;20519;-84
2022/08/10 08:01:20;;;;;;;2.50;2.40;;;;;;;;;;5002575;28;20116;-84
2022/08/10 08:03:48;;;;;;;3.10;2.00;;;;;;;;;;5000942;28;20411;-84
2022/08/10 08:06:36;;;;;;;33.45;12.77;;;;;;;;;;5001641;28;20050;-85
2022/08/10 08:09:03;;;;;;;2.60;2.40;;;;;;;;;;5001654;28;20109;-84
2022/08/10 08:11:31;;;;;;;2.97;2.30;;;;;;;;;;5000011;28;20055;-86
2022/08/10 08:14:00;;;;;;;3.05;2.53;;;;;;;;;;5005118;28;20054;-85
2022/08/10 08:16:29;;;;;;;4.32;2.15;;;;;;;;;;4999223;28;20054;-84
2022/08/10 08:18:57;;;;;;;4.00;2.20;;;;;;;;;;5002985;28;20058;-85
2022/08/10 08:21:44;;;;;;;9.75;3.10;;;;;;;;;;5004781;28;20046;-84
2022/08/10 08:24:37;;;;;;;7.40;2.70;;;;;;;;;;5008875;28;20042;-84
2022/08/10 08:27:06;;;;;;;5.18;2.17;;;;;;;;;;5027133;28;20049;-84
2022/08/10 08:29:35;;;;;;;4.65;2.70;;;;;;;;;;5023238;28;20469;-85
2022/08/10 08:32:04;;;;;;;4.57;2.30;;;;;;;;;;5024228;28;20065;-85
2022/08/10 08:34:31;;;;;;;7.25;2.20;;;;;;;;;;5024743;28;20510;-84
2022/08/10 08:37:00;;;;;;;4.20;2.50;;;;;;;;;;5025195;28;20068;-85
2022/08/10 08:39:27;;;;;;;8.23;2.60;;;;;;;;;;5022094;28;20049;-83
2022/08/10 08:42:13;;;;;;;5.03;2.30;;;;;;;;;;5022283;28;20099;-86
2022/08/10 08:44:56;;;;;;;3.78;2.35;;;;;;;;;;5022198;28;20487;-86
2022/08/10 08:47:26;;;;;;;5.35;2.17;;;;;;;;;;5024273;28;20046;-84
2022/08/10 08:50:32;;;;;;;5.32;2.70;;;;;;;;;;5029525;28;20099;-84
2022/08/10 08:53:11;;;;;;;5.78;2.30;;;;;;;;;;5025479;28;20053;-84
2022/08/10 08:55:51;;;;;;;3.00;2.10;;;;;;;;;;5008658;28;20052;-84
2022/08/10 08:58:32;;;;;;;2.22;2.03;;;;;;;;;;5025714;28;20080;-85
2022/08/10 09:01:20;;;;;;;4.82;2.08;;;;;;;;;;5027110;28;20053;-85
2022/08/10 09:04:10;;;;;;;4.30;2.47;;;;;;;;;;5023405;28;20522;-85
2022/08/10 09:07:06;;;;;;;4.47;2.25;;;;;;;;;;5023184;28;20049;-83
2022/08/10 09:10:23;;;;;;;4.78;2.20;;;;;;;;;;5027667;28;20049;-84
2022/08/10 09:13:00;;;;;;;2.67;2.10;;;;;;;;;;5011216;28;20049;-85
2022/08/10 09:15:30;;;;;;;4.10;2.10;;;;;;;;;;5022256;28;20450;-84
2022/08/10 09:18:13;;;;;;;5.53;2.15;;;;;;;;;;5024339;28;20458;-88
2022/08/10 09:20:40;;;;;;;;;;;;;;;;;;5022455;28;20068;-82
2022/08/10 09:23:07;;;;;;;5.05;1.90;;;;;;;;;;5021109;28;19928;-85
2022/08/10 09:25:36;;;;;;;4.53;1.90;;;;;;;;;;5021843;28;20103;-89
2022/08/10 09:28:05;;;;;;;2.70;1.85;;;;;;;;;;5024781;28;20057;-86
2022/08/10 09:30:49;;;;;;;4.70;2.30;;;;;;;;;;5024808;28;20099;-85
2022/08/10 09:33:43;;;;;;;2.47;1.70;;;;;;;;;;5026182;28;20383;-86
2022/08/10 09:36:36;;;;;;;5.55;1.90;;;;;;;;;;5025912;28;20076;-84
2022/08/10 09:39:10;;;;;;;3.63;1.80;;;;;;;;;;5021659;28;20052;-86
2022/08/10 09:41:58;;;;;;;3.53;2.10;;;;;;;;;;5027379;28;20045;-84
2022/08/10 09:44:34;;;;;;;6.72;2.05;;;;;;;;;;5023184;28;20499;-84
2022/08/10 09:47:40;;;;;;;6.80;1.30;;;;;;;;;;5041534;28;20057;-85
2022/08/10 09:50:35;;;;;;;4.35;1.63;;;;;;;;;;5027298;28;20069;-87
2022/08/10 09:53:34;;;;;;;2.17;1.17;;;;;;;;;;5039258;28;20467;-85
2022/08/10 09:56:20;;;;;;;4.18;1.30;;;;;;;;;;5020431;28;20050;-87
2022/08/10 09:59:04;;;;;;;5.53;1.40;;;;;;;;;;5020871;28;20053;-85
2022/08/10 10:01:58;;;;;;;3.45;1.58;;;;;;;;;;5022291;28;20391;-85
2022/08/10 10:04:49;;;;;;;2.40;1.20;;;;;;;;;;5021013;28;20099;-80
2022/08/10 10:07:27;;;;;;;5.45;1.40;;;;;;;;;;5019243;28;20514;-87
2022/08/10 10:10:09;;;;;;;4.68;1.30;;;;;;;;;;5022079;28;20060;-84
2022/08/10 10:12:56;;;;;;;3.17;1.40;;;;;;;;;;5020097;28;20049;-84
2022/08/10 10:15:26;;;;;;;2.05;1.40;;;;;;;;;;5021072;28;20046;-86
2022/08/10 10:18:00;;;;;;;2.05;1.30;;;;;;;;;;5020172;28;20041;-86
2022/08/10 10:20:46;;;;;;;3.17;1.23;;;;;;;;;;5020279;28;20062;-86
2022/08/10 10:23:23;;;;;;;2.38;1.25;;;;;;;;;;5022811;28;20415;-84
2022/08/10 10:26:14;;;;;;;4.40;1.50;;;;;;;;;;5019841;28;20132;-85
2022/08/10 10:28:48;;;;;;;7.25;1.65;;;;;;;;;;5018395;28;20057;-86
2022/08/10 10:31:42;;;;;;;3.40;1.70;;;;;;;;;;5023132;28;20087;-83
2022/08/10 10:34:28;;;;;;;3.45;1.52;;;;;;;;;;5021134;28;20095;-88
2022/08/10 10:36:59;;;;;;;2.60;1.70;;;;;;;;;;5018908;28;20045;-83
2022/08/10 10:39:30;;;;;;;3.60;1.33;;;;;;;;;;5020893;28;20045;-87
2022/08/10 10:42:16;;;;;;;1.65;1.55;;;;;;;;;;5020501;28;20045;-83
2022/08/10 10:45:17;;;;;;;1.65;1.50;;;;;;;;;;5024310;28;20132;-84
2022/08/10 10:48:04;;;;;;;3.47;1.63;;;;;;;;;;5019766;28;20180;-88
2022/08/10 10:50:49;;;;;;;2.05;1.35;;;;;;;;;;5037714;28;20053;-86
2022/08/10 10:53:36;;;;;;;4.53;1.70;;;;;;;;;;5022054;28;20053;-87
2022/08/10 10:56:23;;;;;;;1.60;1.50;;;;;;;;;;5021229;28;20491;-84
2022/08/10 10:59:02;;;;;;;3.47;1.45;;;;;;;;;;5019058;28;20054;-86
2022/08/10 11:02:08;;;;;;;24.42;2.30;;;;;;;;;;5025190;28;20109;-86
2022/08/10 11:04:40;;;;;;;6.03;1.30;;;;;;;;;;5026480;28;20049;-85
2022/08/10 11:07:24;;;;;;;4.70;2.00;;;;;;;;;;5019266;28;20175;-89
2022/08/10 11:10:01;;;;;;;1.88;1.27;;;;;;;;;;5016615;28;20061;-88
2022/08/10 11:12:56;;;;;;;2.85;1.70;;;;;;;;;;5019349;28;20581;-89
2022/08/10 11:15:50;;;;;;;2.00;1.73;;;;;;;;;;5019052;28;20049;-88
2022/08/10 11:18:24;;;;;;;4.25;1.67;;;;;;;;;;5016038;28;20518;-88
2022/08/10 11:20:55;;;;;;;2.15;1.63;;;;;;;;;;5016207;28;20494;-89
2022/08/10 11:23:30;;;;;;;1.88;1.38;;;;;;;;;;5015805;28;20457;-89
2022/08/10 11:26:07;;;;;;;6.03;2.00;;;;;;;;;;5015899;28;20148;-88
2022/08/10 11:28:54;;;;;;;4.93;1.40;;;;;;;;;;5015726;28;20053;-89
2022/08/10 11:31:33;;;;;;;5.47;1.90;;;;;;;;;;5015910;28;20429;-90
2022/08/10 11:34:03;;;;;;;2.97;1.50;;;;;;;;;;5016309;28;20053;-88
2022/08/10 11:37:02;;;;;;;4.47;1.60;;;;;;;;;;5018756;28;20067;-88
2022/08/10 11:39:52;;;;;;;7.20;1.88;;;;;;;;;;5033610;28;20042;-86
2022/08/10 11:42:30;;;;;;;2.97;1.60;;;;;;;;;;5008623;28;20057;-90
2022/08/10 11:45:09;;;;;;;3.80;1.50;;;;;;;;;;5016819;28;20045;-90
2022/08/10 11:47:53;;;;;;;10.15;1.88;;;;;;;;;;5033040;28;20045;-86
2022/08/10 11:50:24;;;;;;;8.05;1.80;;;;;;;;;;5015859;28;20127;-89
2022/08/10 11:52:59;;;;;;;3.20;1.42;;;;;;;;;;5016003;28;20091;-87
2022/08/10 11:55:31;;;;;;;3.95;1.50;;;;;;;;;;5015627;28;20045;-87
2022/08/10 11:59:55;;;;;;;6.25;1.50;;;;;;;;;;5015628;28;20072;-90
2022/08/10 12:00:51;;;;;;;3.78;1.50;;;;;;;;;;5033438;28;20083;-90
2022/08/10 12:03:19;;;;;;;2.03;1.60;;;;;;;;;;5016491;28;20396;-89
2022/08/10 12:05:47;;;;;;;3.88;1.52;;;;;;;;;;5016338;28;20580;-87
2022/08/10 12:08:22;;;;;;;3.30;1.50;;;;;;;;;;5016237;28;20049;-88
2022/08/10 12:11:10;;;;;;;3.83;1.30;;;;;;;;;;5018187;28;20140;-87
2022/08/10 12:13:54;;;;;;;2.00;1.50;;;;;;;;;;5017209;28;20056;-89
2022/08/10 12:16:42;;;;;;;4.82;1.50;;;;;;;;;;5018855;28;20048;-89
2022/08/10 12:19:32;;;;;;;1.98;1.42;;;;;;;;;;5015995;28;20084;-89
2022/08/10 12:22:27;;;;;;;4.97;1.67;;;;;;;;;;5019789;28;20053;-88
2022/08/10 12:25:00;;;;;;;2.10;1.42;;;;;;;;;;5019552;28;20486;-87
2022/08/10 12:27:34;;;;;;;13.43;2.22;;;;;;;;;;5019280;28;20057;-87
2022/08/10 12:30:06;;;;;;;3.00;1.73;;;;;;;;;;5020455;28;20463;-88
2022/08/10 12:32:33;;;;;;;1.67;1.58;;;;;;;;;;5019077;28;20495;-89
2022/08/10 12:35:09;;;;;;;4.30;1.63;;;;;;;;;;5019010;28;20649;-88
2022/08/10 12:37:51;;;;;;;2.80;1.40;;;;;;;;;;5036427;28;20045;-89
2022/08/10 12:40:22;;;;;;;5.93;1.88;;;;;;;;;;5019270;28;20088;-88
2022/08/10 12:43:20;;;;;;;1.88;1.35;;;;;;;;;;5021536;28;20069;-87
2022/08/10 12:46:07;;;;;;;2.47;1.30;;;;;;;;;;5022033;28;20132;-89
2022/08/10 12:48:50;;;;;;;1.42;1.33;;;;;;;;;;5018569;28;20085;-88
2022/08/10 12:51:22;;;;;;;3.85;1.55;;;;;;;;;;5018917;28;20046;-88
2022/08/10 12:54:21;;;;;;;3.00;1.80;;;;;;;;;;5018665;28;20088;-88
2022/08/10 12:57:01;;;;;;;11.35;1.98;;;;;;;;;;4992646;28;20049;-88
2022/08/10 12:59:29;;;;;;;3.20;1.48;;;;;;;;;;5018986;28;20580;-89
2022/08/10 13:01:59;;;;;;;9.82;1.60;;;;;;;;;;5018834;28;20069;-89
2022/08/10 13:04:38;;;;;;;1.90;1.42;;;;;;;;;;5020590;28;20115;-88
2022/08/10 13:07:06;;;;;;;4.25;1.70;;;;;;;;;;5018557;28;20050;-87
2022/08/10 13:09:33;;;;;;;3.80;1.40;;;;;;;;;;5018986;28;20107;-88
2022/08/10 13:12:22;;;;;;;3.75;1.38;;;;;;;;;;5036214;28;20124;-87
2022/08/10 13:15:15;;;;;;;5.53;1.70;;;;;;;;;;5021666;28;20053;-87
2022/08/10 13:18:03;;;;;;;3.00;1.35;;;;;;;;;;5022248;28;20147;-88
2022/08/10 13:20:33;;;;;;;3.22;1.45;;;;;;;;;;5018792;28;20045;-88
2022/08/10 13:23:01;;;;;;;5.28;1.45;;;;;;;;;;5018335;28;20053;-85
2022/08/10 13:25:35;;;;;;;3.08;1.77;;;;;;;;;;5018280;28;20049;-89
2022/08/10 13:28:05;;;;;;;7.30;1.90;;;;;;;;;;5018666;28;20053;-88
2022/08/10 13:30:53;;;;;;;1.33;1.20;;;;;;;;;;5021115;28;20487;-89
2022/08/10 13:33:25;;;;;;;4.35;1.65;;;;;;;;;;5017873;28;20048;-88
2022/08/10 13:36:14;;;;;;;11.30;1.90;;;;;;;;;;5021109;28;20533;-88
2022/08/10 13:38:42;;;;;;;5.43;1.85;;;;;;;;;;5018574;28;20658;-89
2022/08/10 13:41:10;;;;;;;3.28;1.60;;;;;;;;;;5019143;28;20049;-89
2022/08/10 13:43:50;;;;;;;2.50;1.73;;;;;;;;;;5035497;28;20552;-87
2022/08/10 13:46:20;;;;;;;5.22;1.60;;;;;;;;;;5017981;28;20045;-87
2022/08/10 13:48:52;;;;;;;;;;;;;;;;;;5019369;28;20045;-88
2022/08/10 13:51:23;;;;;;;2.65;1.58;;;;;;;;;;5018131;28;19921;-88
2022/08/10 13:54:14;;;;;;;4.47;1.90;;;;;;;;;;5021012;28;20081;-88
2022/08/10 13:56:44;;;;;;;;;;;;;;;;;;5018098;28;20485;-88
2022/08/10 13:59:17;;;;;;;4.97;1.65;;;;;;;;;;5017889;28;20348;-88
2022/08/10 14:02:16;;;;;;;2.67;1.70;;;;;;;;;;5022354;28;20421;-88
2022/08/10 14:04:44;;;;;;;2.97;1.40;;;;;;;;;;5017384;28;20049;-89
2022/08/10 14:07:12;;;;;;;11.15;3.58;;;;;;;;;;5017361;28;20053;-90
2022/08/10 14:09:42;;;;;;;3.90;1.45;;;;;;;;;;5022209;28;20384;-88
2022/08/10 14:12:11;;;;;;;1.55;1.45;;;;;;;;;;5017235;28;20079;-86
2022/08/10 14:14:38;;;;;;;5.15;1.67;;;;;;;;;;5017302;28;20562;-88
2022/08/10 14:17:06;;;;;;;5.65;1.50;;;;;;;;;;5034694;28;20081;-87
2022/08/10 14:19:36;;;;;;;5.43;1.50;;;;;;;;;;5017153;28;20495;-85
2022/08/10 14:22:09;;;;;;;1.73;1.20;;;;;;;;;;5017505;28;20057;-86
2022/08/10 14:24:36;;;;;;;2.78;1.67;;;;;;;;;;5016789;28;20103;-86
2022/08/10 14:27:05;;;;;;;5.32;1.50;;;;;;;;;;5034487;28;20050;-87
2022/08/10 14:29:38;;;;;;;1.58;1.42;;;;;;;;;;5016959;28;20111;-86
2022/08/10 14:32:07;;;;;;;10.35;1.70;;;;;;;;;;5016728;28;20049;-86
2022/08/10 14:34:38;;;;;;;4.05;1.90;;;;;;;;;;5034121;28;20518;-87
2022/08/10 14:37:39;;;;;;;2.55;1.45;;;;;;;;;;5020015;28;20041;-86
2022/08/10 14:40:12;;;;;;;1.73;1.55;;;;;;;;;;5017003;28;20103;-86
2022/08/10 14:42:40;;;;;;;;;;;;;;;;;;5017226;28;20527;-86
2022/08/10 14:45:12;;;;;;;5.10;1.75;;;;;;;;;;5016800;28;19925;-85
2022/08/10 14:47:40;;;;;;;2.45;1.65;;;;;;;;;;5016676;28;20104;-86
2022/08/10 14:50:29;;;;;;;3.05;1.60;;;;;;;;;;5018478;28;20483;-86
2022/08/10 14:52:59;;;;;;;2.40;1.60;;;;;;;;;;5034142;28;20458;-85
2022/08/10 14:55:27;;;;;;;2.55;1.25;;;;;;;;;;5016482;28;20049;-86
2022/08/10 14:57:54;;;;;;;6.90;1.58;;;;;;;;;;5016442;28;20064;-88
2022/08/10 15:00:41;;;;;;;2.22;1.98;;;;;;;;;;5018684;28;20132;-86
2022/08/10 15:03:10;;;;;;;3.85;1.58;;;;;;;;;;5017085;28;20076;-88
2022/08/10 15:05:59;;;;;;;3.17;1.50;;;;;;;;;;5019368;28;20049;-88
2022/08/10 15:08:28;;;;;;;4.72;1.73;;;;;;;;;;5017783;28;20495;-87
2022/08/10 15:11:03;;;;;;;4.50;1.80;;;;;;;;;;5018083;28;20056;-86
2022/08/10 15:13:30;;;;;;;9.50;1.80;;;;;;;;;;5016627;28;20116;-88
2022/08/10 15:16:02;;;;;;;4.22;1.88;;;;;;;;;;5016845;28;20045;-85
2022/08/10 15:18:46;;;;;;;2.50;1.70;;;;;;;;;;5017225;28;20549;-86
2022/08/10 15:21:25;;;;;;;6.30;2.00;;;;;;;;;;5017658;28;20049;-85
2022/08/10 15:24:13;;;;;;;5.85;1.90;;;;;;;;;;5018594;28;20053;-87
2022/08/10 15:26:41;;;;;;;3.13;1.85;;;;;;;;;;5015939;28;20458;-86
2022/08/10 15:29:24;;;;;;;4.22;1.92;;;;;;;;;;5018295;28;20060;-86
2022/08/10 15:37:26;;;;;;;6.25;2.13;;;;;;;;;;5033821;28;20152;-87
2022/08/10 15:40:25;;;;;;;6.60;1.92;;;;;;;;;;5018102;28;20099;-87
2022/08/10 15:43:16;;;;;;;3.30;1.63;;;;;;;;;;5017402;28;20049;-85
2022/08/10 15:45:56;;;;;;;6.85;2.05;;;;;;;;;;5017182;28;20057;-87
2022/08/10 15:48:24;;;;;;;7.75;1.60;;;;;;;;;;5033858;28;20053;-86
2022/08/10 15:50:57;;;;;;;5.60;1.77;;;;;;;;;;5016068;28;20057;-86
2022/08/10 15:53:30;;;;;;;3.83;1.60;;;;;;;;;;5016202;28;20495;-86
2022/08/10 15:56:16;;;;;;;3.03;1.70;;;;;;;;;;5019149;28;20132;-85
2022/08/10 15:59:01;;;;;;;2.95;1.95;;;;;;;;;;5022111;28;20046;-87
2022/08/10 16:01:38;;;;;;;3.95;2.10;;;;;;;;;;5030201;28;20041;-85
2022/08/10 16:04:32;;;;;;;6.65;2.80;;;;;;;;;;5024091;28;20407;-86
2022/08/10 16:07:04;;;;;;;3.67;2.10;;;;;;;;;;5021907;28;20045;-86
2022/08/10 16:09:33;;;;;;;2.45;1.70;;;;;;;;;;5020359;28;20132;-86
2022/08/10 16:12:20;;;;;;;6.43;2.00;;;;;;;;;;5037171;28;20045;-87
2022/08/10 16:14:58;;;;;;;3.55;2.22;;;;;;;;;;5023606;28;20053;-87
2022/08/10 16:17:32;;;;;;;4.28;2.38;;;;;;;;;;5039613;28;20053;-86